createdAt,value
2023-01-19T00:00:41.599Z,99618.04
2023-01-19T00:03:24.507Z,99615.88
2023-01-19T00:05:52.133Z,99621.46
2023-01-19T00:08:18.877Z,99622.65
2023-01-19T00:10:50.833Z,99630.95
2023-01-19T00:13:17.751Z,99641.45
2023-01-19T00:15:44.949Z,99647.86
2023-01-19T00:18:12.020Z,99651.65
2023-01-19T00:20:40.115Z,99646.86
2023-01-19T00:23:07.725Z,99648.37
2023-01-19T00:25:35.195Z,99647.48
2023-01-19T00:28:02.128Z,99648.33
2023-01-19T00:30:29.910Z,99646.77
2023-01-19T00:32:56.840Z,99649.97
2023-01-19T00:35:23.703Z,99649.73
2023-01-19T00:37:51.139Z,99648.42
2023-01-19T00:40:17.994Z,99649.05
2023-01-19T00:42:45.445Z,99648.92
2023-01-19T00:45:18.101Z,99648.00
2023-01-19T00:47:45.865Z,99645.09
2023-01-19T00:50:16.322Z,99646.25
2023-01-19T00:52:44.411Z,99643.13
2023-01-19T00:55:13.173Z,99643.70
2023-01-19T00:57:41.145Z,99633.23
2023-01-19T01:00:14.649Z,99625.77
2023-01-19T01:02:43.362Z,99621.71
2023-01-19T01:05:11.517Z,99623.23
2023-01-19T01:07:40.907Z,99622.59
2023-01-19T01:10:14.508Z,99621.77
2023-01-19T01:12:57.623Z,99622.31
2023-01-19T01:15:29.392Z,99616.50
2023-01-19T01:17:56.235Z,99616.01
2023-01-19T01:20:27.201Z,99615.61
2023-01-19T01:22:55.588Z,99615.98
2023-01-19T01:25:24.569Z,99608.04
2023-01-19T01:27:52.312Z,99609.96
2023-01-19T01:30:20.074Z,99607.13
2023-01-19T01:32:46.956Z,99614.93
2023-01-19T01:35:14.616Z,99613.56
2023-01-19T01:37:45.033Z,99608.14
2023-01-19T01:40:17.174Z,99605.88
2023-01-19T01:42:44.939Z,99608.02
2023-01-19T01:45:36.809Z,99605.91
2023-01-19T01:48:18.885Z,99604.79
2023-01-19T01:51:13.260Z,99601.58
2023-01-19T01:53:44.840Z,99609.56
2023-01-19T01:56:14.834Z,99605.63
2023-01-19T01:58:43.722Z,99610.23
2023-01-19T02:01:29.475Z,99607.01
2023-01-19T02:03:58.022Z,99606.15
2023-01-19T02:06:25.961Z,99604.65
2023-01-19T02:09:25.364Z,99601.50
2023-01-19T02:12:11.799Z,99596.94
2023-01-19T02:14:38.520Z,99589.84
2023-01-19T02:17:06.323Z,99585.35
2023-01-19T02:19:44.509Z,99585.38
2023-01-19T02:22:24.240Z,99585.95
2023-01-19T02:24:51.685Z,99581.70
2023-01-19T02:27:19.553Z,99577.94
2023-01-19T02:29:46.908Z,99584.70
2023-01-19T02:32:14.073Z,99587.67
2023-01-19T02:34:41.323Z,99583.70
2023-01-19T02:37:14.410Z,99586.41
2023-01-19T02:39:46.060Z,99588.77
2023-01-19T02:42:18.012Z,99587.57
2023-01-19T02:44:48.858Z,99584.71
2023-01-19T02:47:16.219Z,99581.80
2023-01-19T02:49:43.260Z,99580.40
2023-01-19T02:52:17.479Z,99578.86
2023-01-19T02:55:21.629Z,99576.98
2023-01-19T02:58:10.349Z,99579.38
2023-01-19T03:00:51.847Z,99581.61
2023-01-19T03:03:32.347Z,99585.27
2023-01-19T03:06:27.407Z,99578.33
2023-01-19T03:09:53.054Z,99575.13
2023-01-19T03:13:04.415Z,99574.78
2023-01-19T03:15:41.977Z,99574.89
2023-01-19T03:18:11.891Z,99569.85
2023-01-19T03:20:39.997Z,99568.84
2023-01-19T03:23:10.933Z,99565.87
2023-01-19T03:25:41.959Z,99572.85
2023-01-19T03:28:09.601Z,99577.68
2023-01-19T03:30:46.056Z,99577.56
2023-01-19T03:33:20.882Z,99577.80
2023-01-19T03:35:52.589Z,99580.45
2023-01-19T03:38:25.787Z,99589.05
2023-01-19T03:41:01.646Z,99597.58
2023-01-19T03:43:31.146Z,99590.95
2023-01-19T03:45:58.960Z,99592.48
2023-01-19T03:48:26.213Z,99595.23
2023-01-19T03:50:54.745Z,99602.42
2023-01-19T03:53:24.571Z,99604.08
2023-01-19T03:55:53.862Z,99612.27
2023-01-19T03:58:21.829Z,99613.65
2023-01-19T04:00:48.830Z,99611.63
2023-01-19T04:03:17.563Z,99608.27
2023-01-19T04:05:44.737Z,99604.79
2023-01-19T04:08:12.580Z,99604.25
2023-01-19T04:10:40.038Z,99602.98
2023-01-19T04:13:06.987Z,99605.07
2023-01-19T04:15:34.083Z,99607.80
2023-01-19T04:18:01.089Z,99605.57
2023-01-19T04:20:29.054Z,99605.95
2023-01-19T04:23:00.428Z,99611.12
2023-01-19T04:25:28.381Z,99619.61
2023-01-19T04:27:57.717Z,99617.84
2023-01-19T04:30:24.839Z,99611.52
2023-01-19T04:32:53.196Z,99605.52
2023-01-19T04:35:21.783Z,99602.13
2023-01-19T04:37:48.830Z,99604.60
2023-01-19T04:40:15.982Z,99603.55
2023-01-19T04:42:44.536Z,99598.41
2023-01-19T04:45:13.050Z,99597.73
2023-01-19T04:47:42.156Z,99594.86
2023-01-19T04:50:10.815Z,99600.55
2023-01-19T04:52:37.701Z,99602.08
2023-01-19T04:55:06.055Z,99607.02
2023-01-19T04:57:33.096Z,99614.58
2023-01-19T05:00:00.758Z,99616.13
2023-01-19T05:02:27.600Z,99625.60
2023-01-19T05:04:54.651Z,99625.67
2023-01-19T05:07:21.528Z,99632.42
2023-01-19T05:09:48.556Z,99627.61
2023-01-19T05:12:16.005Z,99628.52
2023-01-19T05:14:43.274Z,99628.30
2023-01-19T05:17:10.302Z,99629.98
2023-01-19T05:19:37.346Z,99637.61
2023-01-19T05:22:05.732Z,99639.67
2023-01-19T05:24:33.082Z,99641.34
2023-01-19T05:27:00.644Z,99648.33
2023-01-19T05:29:27.488Z,99655.58
2023-01-19T05:31:54.294Z,99656.29
2023-01-19T05:34:21.274Z,99657.55
2023-01-19T05:36:48.218Z,99661.09
2023-01-19T05:39:15.369Z,99666.13
2023-01-19T05:41:45.684Z,99665.80
2023-01-19T05:44:13.255Z,99661.54
2023-01-19T05:46:43.006Z,99667.83
2023-01-19T05:49:12.367Z,99680.72
2023-01-19T05:51:40.036Z,99693.68
2023-01-19T05:54:08.294Z,99702.13
2023-01-19T05:56:35.266Z,99686.69
2023-01-19T05:59:02.043Z,99689.48
2023-01-19T06:01:29.244Z,99692.14
2023-01-19T06:03:56.399Z,99694.19
2023-01-19T06:06:23.341Z,99713.37
2023-01-19T06:08:50.397Z,99713.83
2023-01-19T06:11:17.440Z,99707.55
2023-01-19T06:13:44.324Z,99712.09
2023-01-19T06:16:11.356Z,99709.89
2023-01-19T06:18:38.116Z,99715.84
2023-01-19T06:21:06.806Z,99716.23
2023-01-19T06:23:35.039Z,99705.50
2023-01-19T06:26:02.487Z,99708.52
2023-01-19T06:28:30.089Z,99712.80
2023-01-19T06:30:57.388Z,99715.55
2023-01-19T06:33:25.696Z,99717.67
2023-01-19T06:35:53.037Z,99714.16
2023-01-19T06:38:20.204Z,99722.06
2023-01-19T06:41:02.300Z,99719.54
2023-01-19T06:43:30.908Z,99718.50
2023-01-19T06:45:59.943Z,99717.12
2023-01-19T06:48:27.492Z,99726.31
2023-01-19T06:50:54.656Z,99732.70
2023-01-19T06:53:22.650Z,99728.38
2023-01-19T06:55:50.542Z,99732.42
2023-01-19T06:58:17.871Z,99727.26
2023-01-19T07:00:44.947Z,99723.23
2023-01-19T07:03:20.751Z,99720.02
2023-01-19T07:05:52.159Z,99719.38
2023-01-19T07:08:19.643Z,99723.85
2023-01-19T07:11:27.172Z,99723.58
2023-01-19T07:13:35.381Z,99724.33
2023-01-19T07:16:08.370Z,99723.17
2023-01-19T07:18:37.568Z,99723.03
2023-01-19T07:21:05.452Z,99723.67
2023-01-19T07:23:33.558Z,99724.30
2023-01-19T07:26:04.241Z,99720.80
2023-01-19T07:28:32.373Z,99714.23
2023-01-19T07:31:00.304Z,99713.66
2023-01-19T07:33:27.946Z,99708.09
2023-01-19T07:35:54.889Z,99707.55
2023-01-19T07:38:22.245Z,99706.90
2023-01-19T07:40:49.292Z,99707.48
2023-01-19T07:43:16.347Z,99706.86
2023-01-19T07:45:44.542Z,99704.41
2023-01-19T07:48:11.362Z,99702.32
2023-01-19T07:50:38.514Z,99697.33
2023-01-19T07:53:06.887Z,99700.48
2023-01-19T07:55:34.041Z,99697.11
2023-01-19T07:58:01.910Z,99700.44
2023-01-19T08:00:29.158Z,99701.32
2023-01-19T08:03:00.299Z,99700.38
2023-01-19T08:05:31.138Z,99701.56
2023-01-19T08:07:58.802Z,99714.94
2023-01-19T08:10:27.840Z,99719.80
2023-01-19T08:12:56.390Z,99723.52
2023-01-19T08:15:24.621Z,99724.53
2023-01-19T08:18:11.065Z,99725.11
2023-01-19T08:20:38.412Z,99725.00
2023-01-19T08:23:05.364Z,99717.09
2023-01-19T08:25:33.326Z,99717.05
2023-01-19T08:28:00.817Z,99719.02
2023-01-19T08:30:28.252Z,99722.73
2023-01-19T08:33:03.469Z,99732.33
2023-01-19T08:35:31.658Z,99737.54
2023-01-19T08:38:01.130Z,99741.77
2023-01-19T08:40:29.188Z,99740.13
2023-01-19T08:43:08.936Z,99744.55
2023-01-19T08:45:47.611Z,99744.79
2023-01-19T08:48:16.787Z,99747.48
2023-01-19T08:50:47.238Z,99743.34
2023-01-19T08:53:16.146Z,99746.81
2023-01-19T08:55:43.153Z,99746.67
2023-01-19T08:58:10.166Z,99743.45
2023-01-19T09:00:37.459Z,99747.48
2023-01-19T09:03:09.179Z,99739.73
2023-01-19T09:05:38.172Z,99741.11
2023-01-19T09:08:07.866Z,99739.55
2023-01-19T09:10:37.191Z,99742.80
2023-01-19T09:13:07.593Z,99743.75
2023-01-19T09:15:37.031Z,99742.45
2023-01-19T09:18:06.592Z,99741.83
2023-01-19T09:20:38.015Z,99737.08
2023-01-19T09:23:05.779Z,99739.27
2023-01-19T09:25:32.823Z,99727.25
2023-01-19T09:28:00.491Z,99725.66
2023-01-19T09:30:28.976Z,99723.06
2023-01-19T09:33:01.497Z,99716.65
2023-01-19T09:35:28.341Z,99710.33
2023-01-19T09:37:55.443Z,99707.73
2023-01-19T09:40:22.234Z,99707.91
2023-01-19T09:42:52.101Z,99695.70
2023-01-19T09:45:39.188Z,99693.34
2023-01-19T09:48:22.368Z,99689.12
2023-01-19T09:50:49.830Z,99683.69
2023-01-19T09:53:46.986Z,99687.13
2023-01-19T09:56:17.049Z,99679.27
2023-01-19T09:58:46.785Z,99678.54
2023-01-19T10:01:39.975Z,99675.52
2023-01-19T10:04:34.499Z,99670.39
2023-01-19T10:07:31.229Z,99663.86
2023-01-19T10:10:03.861Z,99657.52
2023-01-19T10:12:43.202Z,99654.97
2023-01-19T10:15:48.785Z,99643.92
2023-01-19T10:18:36.423Z,99641.99
2023-01-19T10:21:11.399Z,99646.03
2023-01-19T10:24:05.919Z,99647.41
2023-01-19T10:26:41.810Z,99650.04
2023-01-19T10:29:17.485Z,99644.23
2023-01-19T10:31:46.079Z,99645.80
2023-01-19T10:34:23.017Z,99645.27
2023-01-19T10:36:58.385Z,99649.42
2023-01-19T10:39:25.298Z,99643.98
2023-01-19T10:41:53.624Z,99645.73
2023-01-19T10:44:26.332Z,99646.63
2023-01-19T10:46:58.176Z,99645.14
2023-01-19T10:49:24.933Z,99638.77
2023-01-19T10:51:52.546Z,99636.60
2023-01-19T10:54:21.323Z,99633.71
2023-01-19T10:56:57.549Z,99629.73
2023-01-19T10:59:43.575Z,99627.71
2023-01-19T11:02:25.884Z,99621.71
2023-01-19T11:04:59.068Z,99621.87
2023-01-19T11:07:25.753Z,99615.77
2023-01-19T11:10:13.031Z,99609.21
2023-01-19T11:12:42.229Z,99615.05
2023-01-19T11:15:21.642Z,99613.68
2023-01-19T11:17:49.072Z,99609.09
2023-01-19T11:20:24.707Z,99607.73
2023-01-19T11:23:28.640Z,99613.23
2023-01-19T11:26:19.803Z,99608.83
2023-01-19T11:28:50.798Z,99604.55
2023-01-19T11:31:20.018Z,99599.55
2023-01-19T11:33:47.337Z,99596.36
2023-01-19T11:36:18.581Z,99599.81
2023-01-19T11:38:48.960Z,99599.65
2023-01-19T11:41:42.250Z,99604.63
2023-01-19T11:44:23.157Z,99602.71
2023-01-19T11:46:55.309Z,99602.71
2023-01-19T11:49:55.750Z,99605.02
2023-01-19T11:52:47.390Z,99606.63
2023-01-19T11:55:40.330Z,99600.30
2023-01-19T11:58:14.802Z,99610.88
2023-01-19T12:01:15.714Z,99602.84
2023-01-19T12:03:48.468Z,99606.64
2023-01-19T12:06:20.063Z,99608.52
2023-01-19T12:08:55.881Z,99613.55
2023-01-19T12:11:29.649Z,99606.55
2023-01-19T12:13:57.118Z,99601.27
2023-01-19T12:16:28.733Z,99595.86
2023-01-19T12:19:03.506Z,99594.08
2023-01-19T12:21:30.278Z,99598.27
2023-01-19T12:24:22.271Z,99599.33
2023-01-19T12:26:56.722Z,99598.09
2023-01-19T12:29:35.094Z,99593.80
2023-01-19T12:32:13.839Z,99605.63
2023-01-19T12:34:46.237Z,99606.55
2023-01-19T12:37:37.293Z,99606.51
2023-01-19T12:40:28.814Z,99608.48
2023-01-19T12:42:57.039Z,99602.36
2023-01-19T12:45:28.904Z,99611.52
2023-01-19T12:47:56.176Z,99610.08
2023-01-19T12:50:29.085Z,99614.25
2023-01-19T12:53:01.483Z,99611.02
2023-01-19T12:55:30.612Z,99613.66
2023-01-19T12:58:09.639Z,99614.31
2023-01-19T13:00:46.124Z,99611.68
2023-01-19T13:03:15.613Z,99610.80
2023-01-19T13:05:42.566Z,99609.84
2023-01-19T13:08:09.433Z,99614.96
2023-01-19T13:11:10.923Z,99618.05
2023-01-19T13:13:39.673Z,99608.71
2023-01-19T13:16:19.101Z,99607.52
2023-01-19T13:18:47.356Z,99608.92
2023-01-19T13:21:29.190Z,99606.06
2023-01-19T13:23:58.369Z,99608.98
2023-01-19T13:26:28.607Z,99611.42
2023-01-19T13:29:17.435Z,99612.29
2023-01-19T13:31:48.353Z,99613.16
2023-01-19T13:34:21.691Z,99616.09
2023-01-19T13:36:53.997Z,99616.44
2023-01-19T13:39:28.090Z,99613.51
2023-01-19T13:41:59.415Z,99616.20
2023-01-19T13:44:31.740Z,99615.17
2023-01-19T13:46:59.952Z,99615.61
2023-01-19T13:49:32.729Z,99619.84
2023-01-19T13:52:19.131Z,99616.30
2023-01-19T13:54:59.772Z,99614.23
2023-01-19T13:57:40.874Z,99608.29
2023-01-19T14:00:13.766Z,99613.97
2023-01-19T14:02:50.430Z,99611.70
2023-01-19T14:05:25.697Z,99609.42
2023-01-19T14:08:07.511Z,99603.54
2023-01-19T14:10:36.643Z,99606.20
2023-01-19T14:13:15.803Z,99609.85
2023-01-19T14:15:43.931Z,99606.76
2023-01-19T14:18:13.683Z,99610.66
2023-01-19T14:20:41.657Z,99611.26
2023-01-19T14:23:51.997Z,99611.84
2023-01-19T14:26:41.702Z,99613.11
2023-01-19T14:29:32.788Z,99610.17
2023-01-19T14:31:59.959Z,99611.23
2023-01-19T14:34:41.438Z,99608.23
2023-01-19T14:37:21.808Z,99609.25
2023-01-19T14:39:50.081Z,99614.16
2023-01-19T14:42:23.068Z,99611.54
2023-01-19T14:44:52.925Z,99609.59
2023-01-19T14:47:28.945Z,99606.88
2023-01-19T14:50:00.507Z,99598.93
2023-01-19T14:52:32.762Z,99598.23
2023-01-19T14:55:03.284Z,99603.21
2023-01-19T14:57:30.239Z,99605.23
2023-01-19T14:59:56.882Z,99604.55
2023-01-19T15:02:26.512Z,99607.65
2023-01-19T15:04:54.766Z,99612.56
2023-01-19T15:07:24.577Z,99611.00
2023-01-19T15:09:51.998Z,99604.70
2023-01-19T15:12:20.168Z,99610.11
2023-01-19T15:14:47.456Z,99605.95
2023-01-19T15:17:24.951Z,99607.56
2023-01-19T15:19:54.170Z,99608.96
2023-01-19T15:22:26.172Z,99610.58
2023-01-19T15:24:56.820Z,99612.16
2023-01-19T15:27:23.738Z,99610.58
2023-01-19T15:29:50.480Z,99611.75
2023-01-19T15:32:17.451Z,99614.80
2023-01-19T15:34:44.254Z,99618.86
2023-01-19T15:37:11.061Z,99625.69
2023-01-19T15:39:39.340Z,99630.63
2023-01-19T15:42:14.180Z,99631.70
2023-01-19T15:44:40.936Z,99627.70
2023-01-19T15:47:09.394Z,99627.12
2023-01-19T15:49:36.441Z,99633.43
2023-01-19T15:52:03.592Z,99630.35
2023-01-19T15:54:30.434Z,99629.34
2023-01-19T15:56:58.200Z,99633.48
2023-01-19T15:59:25.245Z,99636.46
2023-01-19T16:01:52.236Z,99634.52
2023-01-19T16:04:19.347Z,99632.84
2023-01-19T16:06:47.007Z,99636.43
2023-01-19T16:09:17.945Z,99638.02
2023-01-19T16:11:45.400Z,99643.43
2023-01-19T16:14:12.141Z,99639.63
2023-01-19T16:16:39.035Z,99645.10
2023-01-19T16:19:06.137Z,99649.41
2023-01-19T16:21:32.932Z,99648.25
2023-01-19T16:24:00.337Z,99643.77
2023-01-19T16:26:32.100Z,99639.70
2023-01-19T16:29:10.420Z,99647.34
2023-01-19T16:31:40.637Z,99647.85
2023-01-19T16:34:08.715Z,99648.20
2023-01-19T16:36:42.053Z,99648.67
2023-01-19T16:39:12.731Z,99645.95
2023-01-19T16:41:40.497Z,99648.17
2023-01-19T16:44:11.022Z,99654.45
2023-01-19T16:46:45.074Z,99654.90
2023-01-19T16:49:18.045Z,99658.81
2023-01-19T16:51:45.605Z,99654.26
2023-01-19T16:54:14.241Z,99658.16
2023-01-19T16:56:41.721Z,99657.45
2023-01-19T16:59:13.143Z,99655.14
2023-01-19T17:01:41.276Z,99657.52
2023-01-19T17:04:08.307Z,99658.64
2023-01-19T17:06:35.135Z,99657.73
2023-01-19T17:09:02.290Z,99657.25
2023-01-19T17:11:31.768Z,99661.98
2023-01-19T17:14:01.406Z,99668.09
2023-01-19T17:16:30.742Z,99665.20
2023-01-19T17:19:00.922Z,99665.16
2023-01-19T17:21:28.495Z,99666.33
2023-01-19T17:23:56.766Z,99665.85
2023-01-19T17:26:25.244Z,99667.45
2023-01-19T17:28:58.231Z,99667.59
2023-01-19T17:31:25.088Z,99668.01
2023-01-19T17:33:51.823Z,99666.30
2023-01-19T17:36:24.701Z,99662.91
2023-01-19T17:38:52.964Z,99665.21
2023-01-19T17:41:32.639Z,99663.59
2023-01-19T17:44:00.878Z,99662.95
2023-01-19T17:46:29.135Z,99659.80
2023-01-19T17:48:58.574Z,99664.75
2023-01-19T17:51:26.844Z,99664.77
2023-01-19T17:53:54.817Z,99668.91
2023-01-19T17:56:27.912Z,99669.52
2023-01-19T17:58:56.121Z,99674.63
2023-01-19T18:01:26.091Z,99675.08
2023-01-19T18:03:54.014Z,99675.16
2023-01-19T18:06:21.435Z,99676.88
2023-01-19T18:08:49.092Z,99681.59
2023-01-19T18:11:18.447Z,99678.59
2023-01-19T18:13:47.900Z,99673.39
2023-01-19T18:16:19.042Z,99676.84
2023-01-19T18:18:46.100Z,99675.93
2023-01-19T18:21:14.189Z,99670.92
2023-01-19T18:23:45.614Z,99671.79
2023-01-19T18:26:15.760Z,99672.27
2023-01-19T18:28:43.094Z,99680.70
2023-01-19T18:31:12.721Z,99684.79
2023-01-19T18:33:40.866Z,99686.18
2023-01-19T18:36:08.740Z,99686.55
2023-01-19T18:38:37.509Z,99697.14
2023-01-19T18:41:11.127Z,99697.55
2023-01-19T18:43:39.610Z,99700.77
2023-01-19T18:46:06.916Z,99696.81
2023-01-19T18:48:34.930Z,99699.73
2023-01-19T18:51:06.074Z,99700.71
2023-01-19T18:53:33.022Z,99695.50
2023-01-19T18:56:01.608Z,99703.77
2023-01-19T18:58:31.073Z,99705.04
2023-01-19T19:01:00.057Z,99716.34
2023-01-19T19:03:28.608Z,99727.96
2023-01-19T19:05:56.540Z,99737.90
2023-01-19T19:08:23.631Z,99737.84
2023-01-19T19:10:50.459Z,99745.50
2023-01-19T19:13:21.181Z,99749.16
2023-01-19T19:15:48.446Z,99752.88
2023-01-19T19:18:15.788Z,99769.69
2023-01-19T19:20:43.041Z,99776.90
2023-01-19T19:23:11.323Z,99778.41
2023-01-19T19:25:38.174Z,99786.18
2023-01-19T19:28:05.795Z,99783.58
2023-01-19T19:30:37.206Z,99779.99
2023-01-19T19:33:04.437Z,99780.77
2023-01-19T19:35:31.368Z,99773.29
2023-01-19T19:37:58.524Z,99775.73
2023-01-19T19:40:27.243Z,99777.50
2023-01-19T19:42:54.219Z,99776.08
2023-01-19T19:45:22.221Z,99784.41
2023-01-19T19:47:50.405Z,99789.52
2023-01-19T19:50:18.720Z,99795.73
2023-01-19T19:52:45.724Z,99793.42
2023-01-19T19:55:12.518Z,99793.36
2023-01-19T19:57:39.408Z,99801.05
2023-01-19T20:00:07.276Z,99804.08
2023-01-19T20:02:37.211Z,99804.41
2023-01-19T20:05:05.199Z,99802.67
2023-01-19T20:07:32.348Z,99800.83
2023-01-19T20:09:59.254Z,99800.51
2023-01-19T20:12:26.795Z,99801.73
2023-01-19T20:14:53.659Z,99795.27
2023-01-19T20:17:24.190Z,99795.45
2023-01-19T20:19:52.160Z,99791.34
2023-01-19T20:22:19.160Z,99784.77
2023-01-19T20:24:46.257Z,99781.56
2023-01-19T20:27:12.992Z,99782.52
2023-01-19T20:29:40.041Z,99785.77
2023-01-19T20:32:07.502Z,99793.35
2023-01-19T20:34:35.166Z,99791.23
2023-01-19T20:37:04.188Z,99791.77
2023-01-19T20:39:32.945Z,99794.73
2023-01-19T20:42:01.126Z,99800.94
2023-01-19T20:44:28.280Z,99799.41
2023-01-19T20:46:56.251Z,99802.77
2023-01-19T20:49:23.403Z,99809.71
2023-01-19T20:51:51.375Z,99808.63
2023-01-19T20:54:21.532Z,99815.73
2023-01-19T20:56:48.734Z,99822.29
2023-01-19T20:59:16.916Z,99827.59
2023-01-19T21:01:44.616Z,99832.01
2023-01-19T21:04:12.442Z,99834.73
2023-01-19T21:06:40.515Z,99839.58
2023-01-19T21:09:08.994Z,99840.27
2023-01-19T21:11:37.923Z,99835.51
2023-01-19T21:14:05.540Z,99833.20
2023-01-19T21:16:34.058Z,99838.44
2023-01-19T21:19:01.276Z,99837.16
2023-01-19T21:21:31.126Z,99835.52
2023-01-19T21:24:00.719Z,99833.27
2023-01-19T21:26:29.670Z,99838.45
2023-01-19T21:28:58.082Z,99833.58
2023-01-19T21:31:27.726Z,99825.31
2023-01-19T21:33:56.427Z,99827.27
2023-01-19T21:36:24.229Z,99832.67
2023-01-19T21:38:51.805Z,99831.57
2023-01-19T21:41:19.493Z,99826.79
2023-01-19T21:43:47.009Z,99823.19
2023-01-19T21:46:22.466Z,99817.69
2023-01-19T21:48:49.505Z,99806.52
2023-01-19T21:51:16.153Z,99803.10
2023-01-19T21:53:43.335Z,99811.84
2023-01-19T21:56:11.198Z,99813.18
2023-01-19T21:58:38.208Z,99813.26
2023-01-19T22:01:06.360Z,99795.55
2023-01-19T22:03:33.424Z,99795.27
2023-01-19T22:06:08.390Z,99808.00
2023-01-19T22:08:36.095Z,99815.72
2023-01-19T22:11:15.274Z,99818.59
2023-01-19T22:13:42.716Z,99796.85
2023-01-19T22:16:11.592Z,99807.08
2023-01-19T22:18:43.571Z,99814.25
2023-01-19T22:21:15.969Z,99810.02
2023-01-19T22:23:43.818Z,99809.11
2023-01-19T22:26:11.289Z,99815.91
2023-01-19T22:28:38.981Z,99823.45
2023-01-19T22:31:10.951Z,99808.98
2023-01-19T22:33:38.880Z,99803.90
2023-01-19T22:36:14.910Z,99803.94
2023-01-19T22:38:44.042Z,99810.30
2023-01-19T22:41:24.076Z,99805.87
2023-01-19T22:43:54.191Z,99799.04
2023-01-19T22:46:24.022Z,99797.88
2023-01-19T22:48:52.467Z,99795.58
2023-01-19T22:51:20.876Z,99795.41
2023-01-19T22:53:48.113Z,99799.27
2023-01-19T22:56:21.930Z,99790.10
2023-01-19T22:58:49.382Z,99782.87
2023-01-19T23:01:19.273Z,99784.52
2023-01-19T23:03:46.450Z,99793.75
2023-01-19T23:06:16.156Z,99795.95
2023-01-19T23:08:43.511Z,99799.80
2023-01-19T23:11:40.971Z,99795.75
2023-01-19T23:14:12.984Z,99787.40
2023-01-19T23:16:39.890Z,99785.63
2023-01-19T23:19:07.144Z,99778.33
2023-01-19T23:21:34.184Z,99784.48
2023-01-19T23:24:02.868Z,99795.20
2023-01-19T23:26:30.974Z,99793.29
2023-01-19T23:29:01.249Z,99786.92
2023-01-19T23:31:31.077Z,99787.38
2023-01-19T23:34:04.248Z,99788.20
2023-01-19T23:36:33.361Z,99786.02
2023-01-19T23:39:05.333Z,99785.14
2023-01-19T23:41:36.174Z,99789.83
2023-01-19T23:44:03.414Z,99784.52
2023-01-19T23:46:30.803Z,99791.64
2023-01-19T23:48:57.841Z,99786.42
2023-01-19T23:51:27.966Z,99784.05
2023-01-19T23:53:56.436Z,99783.18
2023-01-19T23:56:29.011Z,99774.84
2023-01-19T23:58:59.104Z,99782.75
